sensor_id;sensor_type;location;lat;lon;timestamp;P1;durP1;ratioP1;P2;durP2;ratioP2
67867;SDS011;54672;46.096;14.470;2023-05-10T00:00:50;7.18;;;3.92;;
67867;SDS011;54672;46.096;14.470;2023-05-10T00:03:16;7.45;;;3.90;;
67867;SDS011;54672;46.096;14.470;2023-05-10T00:05:41;7.38;;;4.10;;
67867;SDS011;54672;46.096;14.470;2023-05-10T00:08:07;6.15;;;3.65;;
67867;SDS011;54672;46.096;14.470;2023-05-10T00:10:32;7.13;;;3.63;;
67867;SDS011;54672;46.096;14.470;2023-05-10T00:12:58;8.02;;;4.10;;
67867;SDS011;54672;46.096;14.470;2023-05-10T00:15:23;7.78;;;4.28;;
67867;SDS011;54672;46.096;14.470;2023-05-10T00:17:49;6.10;;;4.20;;
67867;SDS011;54672;46.096;14.470;2023-05-10T00:20:14;6.28;;;3.65;;
67867;SDS011;54672;46.096;14.470;2023-05-10T00:22:40;6.30;;;4.00;;
67867;SDS011;54672;46.096;14.470;2023-05-10T00:25:05;9.32;;;3.78;;
67867;SDS011;54672;46.096;14.470;2023-05-10T00:27:31;5.97;;;3.75;;
67867;SDS011;54672;46.096;14.470;2023-05-10T00:29:57;7.10;;;4.00;;
67867;SDS011;54672;46.096;14.470;2023-05-10T00:32:22;6.60;;;3.83;;
67867;SDS011;54672;46.096;14.470;2023-05-10T00:34:47;7.68;;;3.88;;
67867;SDS011;54672;46.096;14.470;2023-05-10T00:37:13;8.40;;;4.20;;
67867;SDS011;54672;46.096;14.470;2023-05-10T00:39:38;8.75;;;3.58;;
67867;SDS011;54672;46.096;14.470;2023-05-10T00:42:04;10.20;;;4.05;;
67867;SDS011;54672;46.096;14.470;2023-05-10T00:44:29;6.07;;;3.90;;
67867;SDS011;54672;46.096;14.470;2023-05-10T00:46:55;6.43;;;3.85;;
67867;SDS011;54672;46.096;14.470;2023-05-10T00:49:22;6.53;;;3.92;;
67867;SDS011;54672;46.096;14.470;2023-05-10T00:51:47;6.95;;;3.80;;
67867;SDS011;54672;46.096;14.470;2023-05-10T00:54:14;10.45;;;4.03;;
67867;SDS011;54672;46.096;14.470;2023-05-10T00:56:40;7.30;;;4.03;;
67867;SDS011;54672;46.096;14.470;2023-05-10T00:59:06;6.07;;;3.88;;
67867;SDS011;54672;46.096;14.470;2023-05-10T01:01:33;8.07;;;4.15;;
67867;SDS011;54672;46.096;14.470;2023-05-10T01:03:58;5.93;;;3.92;;
67867;SDS011;54672;46.096;14.470;2023-05-10T01:06:24;8.52;;;3.97;;
67867;SDS011;54672;46.096;14.470;2023-05-10T01:08:50;5.38;;;3.55;;
67867;SDS011;54672;46.096;14.470;2023-05-10T01:11:15;7.63;;;4.15;;
67867;SDS011;54672;46.096;14.470;2023-05-10T01:13:41;8.60;;;4.03;;
67867;SDS011;54672;46.096;14.470;2023-05-10T01:16:08;6.50;;;3.83;;
67867;SDS011;54672;46.096;14.470;2023-05-10T01:18:34;7.05;;;4.05;;
67867;SDS011;54672;46.096;14.470;2023-05-10T01:23:42;6.60;;;4.28;;
67867;SDS011;54672;46.096;14.470;2023-05-10T01:26:59;7.57;;;3.90;;
67867;SDS011;54672;46.096;14.470;2023-05-10T01:32:30;8.00;;;3.95;;
67867;SDS011;54672;46.096;14.470;2023-05-10T01:37:25;8.38;;;4.47;;
67867;SDS011;54672;46.096;14.470;2023-05-10T01:40:10;9.70;;;4.55;;
67867;SDS011;54672;46.096;14.470;2023-05-10T01:42:42;8.40;;;3.95;;
67867;SDS011;54672;46.096;14.470;2023-05-10T01:48:15;7.57;;;4.65;;
67867;SDS011;54672;46.096;14.470;2023-05-10T01:50:43;6.93;;;4.05;;
67867;SDS011;54672;46.096;14.470;2023-05-10T01:53:11;8.48;;;4.45;;
67867;SDS011;54672;46.096;14.470;2023-05-10T01:55:46;9.07;;;4.60;;
67867;SDS011;54672;46.096;14.470;2023-05-10T01:58:15;8.07;;;4.70;;
67867;SDS011;54672;46.096;14.470;2023-05-10T02:00:52;7.85;;;4.07;;
67867;SDS011;54672;46.096;14.470;2023-05-10T02:03:20;7.10;;;4.60;;
67867;SDS011;54672;46.096;14.470;2023-05-10T02:05:48;8.00;;;4.10;;
67867;SDS011;54672;46.096;14.470;2023-05-10T02:08:15;8.57;;;4.50;;
67867;SDS011;54672;46.096;14.470;2023-05-10T02:10:43;11.32;;;4.30;;
67867;SDS011;54672;46.096;14.470;2023-05-10T02:13:10;7.57;;;4.82;;
67867;SDS011;54672;46.096;14.470;2023-05-10T02:15:37;10.32;;;5.03;;
67867;SDS011;54672;46.096;14.470;2023-05-10T02:18:05;10.02;;;4.72;;
67867;SDS011;54672;46.096;14.470;2023-05-10T02:20:31;8.57;;;4.97;;
67867;SDS011;54672;46.096;14.470;2023-05-10T02:22:58;8.30;;;4.90;;
67867;SDS011;54672;46.096;14.470;2023-05-10T02:25:24;7.78;;;4.40;;
67867;SDS011;54672;46.096;14.470;2023-05-10T02:27:52;8.57;;;4.40;;
67867;SDS011;54672;46.096;14.470;2023-05-10T02:30:20;6.13;;;4.32;;
67867;SDS011;54672;46.096;14.470;2023-05-10T02:32:47;7.68;;;4.40;;
67867;SDS011;54672;46.096;14.470;2023-05-10T02:35:13;7.82;;;4.10;;
67867;SDS011;54672;46.096;14.470;2023-05-10T02:37:40;8.52;;;4.13;;
67867;SDS011;54672;46.096;14.470;2023-05-10T02:40:06;8.00;;;4.15;;
67867;SDS011;54672;46.096;14.470;2023-05-10T02:42:35;7.18;;;4.40;;
67867;SDS011;54672;46.096;14.470;2023-05-10T02:45:02;9.93;;;4.30;;
67867;SDS011;54672;46.096;14.470;2023-05-10T02:47:33;9.15;;;4.18;;
67867;SDS011;54672;46.096;14.470;2023-05-10T02:49:59;9.65;;;4.40;;
67867;SDS011;54672;46.096;14.470;2023-05-10T02:52:29;9.27;;;4.20;;
67867;SDS011;54672;46.096;14.470;2023-05-10T02:55:02;8.43;;;4.38;;
67867;SDS011;54672;46.096;14.470;2023-05-10T02:57:31;9.30;;;5.03;;
67867;SDS011;54672;46.096;14.470;2023-05-10T02:59:59;9.30;;;5.18;;
67867;SDS011;54672;46.096;14.470;2023-05-10T03:02:25;8.43;;;5.03;;
67867;SDS011;54672;46.096;14.470;2023-05-10T03:04:51;9.50;;;5.15;;
67867;SDS011;54672;46.096;14.470;2023-05-10T03:07:17;9.25;;;4.88;;
67867;SDS011;54672;46.096;14.470;2023-05-10T03:09:44;9.30;;;5.07;;
67867;SDS011;54672;46.096;14.470;2023-05-10T03:17:36;8.50;;;4.63;;
67867;SDS011;54672;46.096;14.470;2023-05-10T03:20:19;8.75;;;4.80;;
67867;SDS011;54672;46.096;14.470;2023-05-10T03:22:51;9.63;;;5.30;;
67867;SDS011;54672;46.096;14.470;2023-05-10T03:25:20;11.90;;;5.05;;
67867;SDS011;54672;46.096;14.470;2023-05-10T03:27:46;8.40;;;5.18;;
67867;SDS011;54672;46.096;14.470;2023-05-10T03:30:13;8.65;;;4.75;;
67867;SDS011;54672;46.096;14.470;2023-05-10T03:32:39;10.32;;;5.35;;
67867;SDS011;54672;46.096;14.470;2023-05-10T03:35:11;9.38;;;4.88;;
67867;SDS011;54672;46.096;14.470;2023-05-10T03:37:38;7.47;;;4.68;;
67867;SDS011;54672;46.096;14.470;2023-05-10T03:40:04;8.40;;;4.88;;
67867;SDS011;54672;46.096;14.470;2023-05-10T03:42:30;11.75;;;5.05;;
67867;SDS011;54672;46.096;14.470;2023-05-10T03:44:55;8.93;;;4.90;;
67867;SDS011;54672;46.096;14.470;2023-05-10T03:47:21;9.43;;;4.60;;
67867;SDS011;54672;46.096;14.470;2023-05-10T03:49:46;7.47;;;4.22;;
67867;SDS011;54672;46.096;14.470;2023-05-10T03:52:12;7.93;;;4.57;;
67867;SDS011;54672;46.096;14.470;2023-05-10T03:54:37;7.10;;;4.53;;
67867;SDS011;54672;46.096;14.470;2023-05-10T03:57:03;9.80;;;4.32;;
67867;SDS011;54672;46.096;14.470;2023-05-10T03:59:28;8.82;;;4.68;;
67867;SDS011;54672;46.096;14.470;2023-05-10T04:01:54;6.90;;;4.43;;
67867;SDS011;54672;46.096;14.470;2023-05-10T04:04:20;8.85;;;4.53;;
67867;SDS011;54672;46.096;14.470;2023-05-10T04:06:46;7.78;;;4.10;;
67867;SDS011;54672;46.096;14.470;2023-05-10T04:09:11;8.40;;;4.68;;
67867;SDS011;54672;46.096;14.470;2023-05-10T04:11:37;6.97;;;3.90;;
67867;SDS011;54672;46.096;14.470;2023-05-10T04:14:02;7.35;;;4.22;;
67867;SDS011;54672;46.096;14.470;2023-05-10T04:16:28;6.82;;;4.30;;
67867;SDS011;54672;46.096;14.470;2023-05-10T04:18:53;10.40;;;4.40;;
67867;SDS011;54672;46.096;14.470;2023-05-10T04:21:19;7.75;;;4.38;;
67867;SDS011;54672;46.096;14.470;2023-05-10T04:23:44;7.45;;;4.22;;
67867;SDS011;54672;46.096;14.470;2023-05-10T04:26:10;6.90;;;3.80;;
67867;SDS011;54672;46.096;14.470;2023-05-10T04:28:35;9.43;;;4.25;;
67867;SDS011;54672;46.096;14.470;2023-05-10T04:31:05;7.68;;;4.32;;
67867;SDS011;54672;46.096;14.470;2023-05-10T04:33:32;8.23;;;4.35;;
67867;SDS011;54672;46.096;14.470;2023-05-10T04:35:59;7.85;;;4.70;;
67867;SDS011;54672;46.096;14.470;2023-05-10T04:38:24;7.22;;;4.40;;
67867;SDS011;54672;46.096;14.470;2023-05-10T04:40:50;7.95;;;4.25;;
67867;SDS011;54672;46.096;14.470;2023-05-10T04:43:16;8.05;;;4.72;;
67867;SDS011;54672;46.096;14.470;2023-05-10T04:45:41;7.63;;;4.53;;
67867;SDS011;54672;46.096;14.470;2023-05-10T04:48:06;9.00;;;4.20;;
67867;SDS011;54672;46.096;14.470;2023-05-10T04:50:32;10.80;;;4.93;;
67867;SDS011;54672;46.096;14.470;2023-05-10T04:52:58;8.02;;;4.68;;
67867;SDS011;54672;46.096;14.470;2023-05-10T04:55:23;10.02;;;4.93;;
67867;SDS011;54672;46.096;14.470;2023-05-10T04:57:48;10.18;;;5.28;;
67867;SDS011;54672;46.096;14.470;2023-05-10T05:00:14;8.40;;;4.30;;
67867;SDS011;54672;46.096;14.470;2023-05-10T05:02:43;12.00;;;4.95;;
67867;SDS011;54672;46.096;14.470;2023-05-10T05:05:13;9.85;;;5.18;;
67867;SDS011;54672;46.096;14.470;2023-05-10T05:07:38;9.15;;;5.18;;
67867;SDS011;54672;46.096;14.470;2023-05-10T05:10:06;10.75;;;4.90;;
67867;SDS011;54672;46.096;14.470;2023-05-10T05:12:33;9.65;;;4.97;;
67867;SDS011;54672;46.096;14.470;2023-05-10T05:14:59;10.23;;;4.28;;
67867;SDS011;54672;46.096;14.470;2023-05-10T05:17:24;8.02;;;4.22;;
67867;SDS011;54672;46.096;14.470;2023-05-10T05:19:50;7.85;;;3.85;;
67867;SDS011;54672;46.096;14.470;2023-05-10T05:22:15;7.15;;;4.05;;
67867;SDS011;54672;46.096;14.470;2023-05-10T05:24:41;8.02;;;5.00;;
67867;SDS011;54672;46.096;14.470;2023-05-10T05:27:06;6.97;;;4.22;;
67867;SDS011;54672;46.096;14.470;2023-05-10T05:29:32;9.10;;;4.35;;
67867;SDS011;54672;46.096;14.470;2023-05-10T05:31:57;10.48;;;4.80;;
67867;SDS011;54672;46.096;14.470;2023-05-10T05:34:23;8.50;;;4.47;;
67867;SDS011;54672;46.096;14.470;2023-05-10T05:36:49;9.02;;;4.32;;
67867;SDS011;54672;46.096;14.470;2023-05-10T05:39:14;7.45;;;4.20;;
67867;SDS011;54672;46.096;14.470;2023-05-10T05:41:40;12.00;;;4.63;;
67867;SDS011;54672;46.096;14.470;2023-05-10T05:44:05;9.18;;;4.53;;
67867;SDS011;54672;46.096;14.470;2023-05-10T05:46:30;9.15;;;4.32;;
67867;SDS011;54672;46.096;14.470;2023-05-10T05:48:56;7.68;;;4.22;;
67867;SDS011;54672;46.096;14.470;2023-05-10T05:51:21;8.07;;;4.72;;
67867;SDS011;54672;46.096;14.470;2023-05-10T05:53:47;7.25;;;4.47;;
67867;SDS011;54672;46.096;14.470;2023-05-10T05:56:12;7.53;;;4.20;;
67867;SDS011;54672;46.096;14.470;2023-05-10T05:58:37;7.13;;;4.70;;
67867;SDS011;54672;46.096;14.470;2023-05-10T06:01:03;7.70;;;4.53;;
67867;SDS011;54672;46.096;14.470;2023-05-10T06:03:28;8.82;;;4.57;;
67867;SDS011;54672;46.096;14.470;2023-05-10T06:05:54;9.60;;;4.30;;
67867;SDS011;54672;46.096;14.470;2023-05-10T06:08:19;8.45;;;4.53;;
67867;SDS011;54672;46.096;14.470;2023-05-10T06:10:45;7.07;;;4.57;;
67867;SDS011;54672;46.096;14.470;2023-05-10T06:13:10;8.75;;;4.90;;
67867;SDS011;54672;46.096;14.470;2023-05-10T06:15:36;12.35;;;4.90;;
67867;SDS011;54672;46.096;14.470;2023-05-10T06:18:01;9.73;;;4.50;;
67867;SDS011;54672;46.096;14.470;2023-05-10T06:20:27;7.32;;;4.90;;
67867;SDS011;54672;46.096;14.470;2023-05-10T06:22:52;14.27;;;5.32;;
67867;SDS011;54672;46.096;14.470;2023-05-10T06:25:17;9.75;;;4.45;;
67867;SDS011;54672;46.096;14.470;2023-05-10T06:27:43;9.75;;;5.00;;
67867;SDS011;54672;46.096;14.470;2023-05-10T06:30:09;9.38;;;4.57;;
67867;SDS011;54672;46.096;14.470;2023-05-10T06:32:35;7.05;;;4.10;;
67867;SDS011;54672;46.096;14.470;2023-05-10T06:35:00;7.93;;;5.15;;
67867;SDS011;54672;46.096;14.470;2023-05-10T06:37:25;10.43;;;5.20;;
67867;SDS011;54672;46.096;14.470;2023-05-10T06:39:51;10.45;;;5.95;;
67867;SDS011;54672;46.096;14.470;2023-05-10T06:42:17;8.77;;;5.07;;
67867;SDS011;54672;46.096;14.470;2023-05-10T06:44:42;11.77;;;5.40;;
67867;SDS011;54672;46.096;14.470;2023-05-10T06:47:08;10.40;;;5.10;;
67867;SDS011;54672;46.096;14.470;2023-05-10T06:49:33;8.80;;;5.00;;
67867;SDS011;54672;46.096;14.470;2023-05-10T06:51:59;12.55;;;4.70;;
67867;SDS011;54672;46.096;14.470;2023-05-10T06:54:24;9.68;;;4.78;;
67867;SDS011;54672;46.096;14.470;2023-05-10T06:56:50;8.85;;;4.55;;
67867;SDS011;54672;46.096;14.470;2023-05-10T06:59:15;7.13;;;3.88;;
67867;SDS011;54672;46.096;14.470;2023-05-10T07:01:41;8.27;;;4.55;;
67867;SDS011;54672;46.096;14.470;2023-05-10T07:04:07;7.93;;;4.43;;
67867;SDS011;54672;46.096;14.470;2023-05-10T07:06:33;10.82;;;4.88;;
67867;SDS011;54672;46.096;14.470;2023-05-10T07:08:58;7.75;;;4.22;;
67867;SDS011;54672;46.096;14.470;2023-05-10T07:11:24;10.00;;;4.78;;
67867;SDS011;54672;46.096;14.470;2023-05-10T07:13:49;9.88;;;3.95;;
67867;SDS011;54672;46.096;14.470;2023-05-10T07:16:15;8.02;;;4.35;;
67867;SDS011;54672;46.096;14.470;2023-05-10T07:18:40;9.13;;;4.53;;
67867;SDS011;54672;46.096;14.470;2023-05-10T07:21:05;7.07;;;4.40;;
67867;SDS011;54672;46.096;14.470;2023-05-10T07:23:31;6.80;;;4.63;;
67867;SDS011;54672;46.096;14.470;2023-05-10T07:25:56;7.15;;;3.97;;
67867;SDS011;54672;46.096;14.470;2023-05-10T07:28:22;7.00;;;4.00;;
67867;SDS011;54672;46.096;14.470;2023-05-10T07:30:49;7.30;;;4.30;;
67867;SDS011;54672;46.096;14.470;2023-05-10T07:33:14;6.35;;;4.20;;
67867;SDS011;54672;46.096;14.470;2023-05-10T07:35:40;8.20;;;3.70;;
67867;SDS011;54672;46.096;14.470;2023-05-10T07:38:06;8.88;;;4.20;;
67867;SDS011;54672;46.096;14.470;2023-05-10T07:40:32;5.63;;;3.95;;
67867;SDS011;54672;46.096;14.470;2023-05-10T07:42:57;7.57;;;4.07;;
67867;SDS011;54672;46.096;14.470;2023-05-10T07:45:23;6.43;;;3.75;;
67867;SDS011;54672;46.096;14.470;2023-05-10T07:47:49;8.73;;;4.57;;
67867;SDS011;54672;46.096;14.470;2023-05-10T07:50:14;7.25;;;4.25;;
67867;SDS011;54672;46.096;14.470;2023-05-10T07:52:40;7.38;;;4.28;;
67867;SDS011;54672;46.096;14.470;2023-05-10T07:55:06;9.20;;;4.10;;
67867;SDS011;54672;46.096;14.470;2023-05-10T07:57:32;7.15;;;4.30;;
67867;SDS011;54672;46.096;14.470;2023-05-10T07:59:58;8.88;;;3.95;;
67867;SDS011;54672;46.096;14.470;2023-05-10T08:02:24;9.95;;;4.00;;
67867;SDS011;54672;46.096;14.470;2023-05-10T08:04:49;4.85;;;3.70;;
67867;SDS011;54672;46.096;14.470;2023-05-10T08:07:14;7.30;;;4.00;;
67867;SDS011;54672;46.096;14.470;2023-05-10T08:09:40;6.22;;;4.00;;
67867;SDS011;54672;46.096;14.470;2023-05-10T08:12:05;6.25;;;4.13;;
67867;SDS011;54672;46.096;14.470;2023-05-10T08:14:31;7.63;;;4.13;;
67867;SDS011;54672;46.096;14.470;2023-05-10T08:16:56;6.65;;;4.43;;
67867;SDS011;54672;46.096;14.470;2023-05-10T08:19:22;6.55;;;4.20;;
67867;SDS011;54672;46.096;14.470;2023-05-10T08:21:47;7.05;;;4.45;;
67867;SDS011;54672;46.096;14.470;2023-05-10T08:24:13;5.95;;;4.00;;
67867;SDS011;54672;46.096;14.470;2023-05-10T08:26:38;7.40;;;4.30;;
67867;SDS011;54672;46.096;14.470;2023-05-10T08:29:04;9.20;;;4.63;;
67867;SDS011;54672;46.096;14.470;2023-05-10T08:31:29;7.28;;;4.35;;
67867;SDS011;54672;46.096;14.470;2023-05-10T08:33:55;8.23;;;4.68;;
67867;SDS011;54672;46.096;14.470;2023-05-10T08:36:20;9.52;;;4.50;;
67867;SDS011;54672;46.096;14.470;2023-05-10T08:38:46;7.80;;;4.60;;
67867;SDS011;54672;46.096;14.470;2023-05-10T08:41:12;8.25;;;4.43;;
67867;SDS011;54672;46.096;14.470;2023-05-10T08:43:38;6.25;;;4.40;;
67867;SDS011;54672;46.096;14.470;2023-05-10T08:46:04;10.82;;;5.38;;
67867;SDS011;54672;46.096;14.470;2023-05-10T08:48:30;7.32;;;4.80;;
67867;SDS011;54672;46.096;14.470;2023-05-10T08:50:58;7.22;;;4.65;;
67867;SDS011;54672;46.096;14.470;2023-05-10T08:53:25;8.18;;;5.10;;
67867;SDS011;54672;46.096;14.470;2023-05-10T08:55:52;9.65;;;5.00;;
67867;SDS011;54672;46.096;14.470;2023-05-10T08:58:17;7.88;;;5.20;;
67867;SDS011;54672;46.096;14.470;2023-05-10T09:00:44;8.68;;;4.70;;
67867;SDS011;54672;46.096;14.470;2023-05-10T09:03:10;9.25;;;4.70;;
67867;SDS011;54672;46.096;14.470;2023-05-10T09:05:36;7.93;;;5.07;;
67867;SDS011;54672;46.096;14.470;2023-05-10T09:08:02;7.82;;;4.60;;
67867;SDS011;54672;46.096;14.470;2023-05-10T09:10:27;11.68;;;4.80;;
67867;SDS011;54672;46.096;14.470;2023-05-10T09:12:57;9.05;;;4.90;;
67867;SDS011;54672;46.096;14.470;2023-05-10T09:15:23;8.48;;;5.03;;
67867;SDS011;54672;46.096;14.470;2023-05-10T09:17:49;7.15;;;5.07;;
67867;SDS011;54672;46.096;14.470;2023-05-10T09:20:15;8.20;;;5.00;;
67867;SDS011;54672;46.096;14.470;2023-05-10T09:22:42;7.53;;;5.05;;
67867;SDS011;54672;46.096;14.470;2023-05-10T09:25:08;7.03;;;4.93;;
67867;SDS011;54672;46.096;14.470;2023-05-10T09:27:38;8.82;;;4.63;;
67867;SDS011;54672;46.096;14.470;2023-05-10T09:30:05;6.88;;;4.97;;
67867;SDS011;54672;46.096;14.470;2023-05-10T09:35:07;10.38;;;5.57;;
67867;SDS011;54672;46.096;14.470;2023-05-10T09:37:33;9.02;;;5.20;;
67867;SDS011;54672;46.096;14.470;2023-05-10T09:39:59;9.05;;;5.22;;
67867;SDS011;54672;46.096;14.470;2023-05-10T09:42:24;7.85;;;5.20;;
67867;SDS011;54672;46.096;14.470;2023-05-10T09:44:50;10.32;;;5.30;;
67867;SDS011;54672;46.096;14.470;2023-05-10T09:47:18;6.45;;;4.15;;
67867;SDS011;54672;46.096;14.470;2023-05-10T09:49:48;8.60;;;5.22;;
67867;SDS011;54672;46.096;14.470;2023-05-10T09:52:15;10.02;;;5.43;;
67867;SDS011;54672;46.096;14.470;2023-05-10T09:54:42;7.75;;;4.97;;
67867;SDS011;54672;46.096;14.470;2023-05-10T09:57:23;9.77;;;5.00;;
67867;SDS011;54672;46.096;14.470;2023-05-10T09:59:49;7.45;;;4.88;;
67867;SDS011;54672;46.096;14.470;2023-05-10T10:02:15;10.85;;;4.82;;
67867;SDS011;54672;46.096;14.470;2023-05-10T10:04:41;7.82;;;4.93;;
67867;SDS011;54672;46.096;14.470;2023-05-10T10:07:07;10.93;;;5.20;;
67867;SDS011;54672;46.096;14.470;2023-05-10T10:09:33;8.88;;;5.63;;
67867;SDS011;54672;46.096;14.470;2023-05-10T10:12:00;9.13;;;5.35;;
67867;SDS011;54672;46.096;14.470;2023-05-10T10:14:27;10.43;;;6.57;;
67867;SDS011;54672;46.096;14.470;2023-05-10T10:16:54;10.65;;;5.93;;
67867;SDS011;54672;46.096;14.470;2023-05-10T10:19:20;11.23;;;6.05;;
67867;SDS011;54672;46.096;14.470;2023-05-10T10:21:47;9.35;;;5.97;;
67867;SDS011;54672;46.096;14.470;2023-05-10T10:24:13;10.55;;;6.45;;
67867;SDS011;54672;46.096;14.470;2023-05-10T10:26:38;12.32;;;6.53;;
67867;SDS011;54672;46.096;14.470;2023-05-10T10:34:38;9.35;;;5.97;;
67867;SDS011;54672;46.096;14.470;2023-05-10T10:37:04;11.50;;;6.05;;
67867;SDS011;54672;46.096;14.470;2023-05-10T10:39:31;12.02;;;6.57;;
67867;SDS011;54672;46.096;14.470;2023-05-10T10:41:57;12.00;;;6.40;;
67867;SDS011;54672;46.096;14.470;2023-05-10T10:49:50;11.15;;;7.13;;
67867;SDS011;54672;46.096;14.470;2023-05-10T10:57:27;13.32;;;6.53;;
67867;SDS011;54672;46.096;14.470;2023-05-10T11:02:47;11.07;;;6.60;;
67867;SDS011;54672;46.096;14.470;2023-05-10T11:05:23;12.38;;;6.82;;
67867;SDS011;54672;46.096;14.470;2023-05-10T11:10:35;9.80;;;6.40;;
67867;SDS011;54672;46.096;14.470;2023-05-10T11:13:04;9.65;;;6.07;;
67867;SDS011;54672;46.096;14.470;2023-05-10T11:15:32;16.27;;;6.90;;
67867;SDS011;54672;46.096;14.470;2023-05-10T11:20:52;16.48;;;7.30;;
67867;SDS011;54672;46.096;14.470;2023-05-10T11:23:21;11.55;;;6.53;;
67867;SDS011;54672;46.096;14.470;2023-05-10T11:25:47;10.23;;;6.25;;
67867;SDS011;54672;46.096;14.470;2023-05-10T11:28:14;11.00;;;7.18;;
67867;SDS011;54672;46.096;14.470;2023-05-10T11:30:40;10.82;;;7.07;;
67867;SDS011;54672;46.096;14.470;2023-05-10T11:33:08;10.85;;;7.13;;
67867;SDS011;54672;46.096;14.470;2023-05-10T11:35:37;10.27;;;6.38;;
67867;SDS011;54672;46.096;14.470;2023-05-10T11:38:07;11.95;;;7.07;;
67867;SDS011;54672;46.096;14.470;2023-05-10T11:40:34;12.40;;;6.35;;
67867;SDS011;54672;46.096;14.470;2023-05-10T11:43:00;10.82;;;6.85;;
67867;SDS011;54672;46.096;14.470;2023-05-10T11:45:25;13.15;;;6.57;;
67867;SDS011;54672;46.096;14.470;2023-05-10T11:47:52;11.02;;;6.47;;
67867;SDS011;54672;46.096;14.470;2023-05-10T11:50:18;10.50;;;6.60;;
67867;SDS011;54672;46.096;14.470;2023-05-10T11:52:43;10.73;;;7.03;;
67867;SDS011;54672;46.096;14.470;2023-05-10T11:55:08;10.82;;;6.47;;
67867;SDS011;54672;46.096;14.470;2023-05-10T11:57:35;10.57;;;6.65;;
67867;SDS011;54672;46.096;14.470;2023-05-10T12:00:00;12.90;;;6.57;;
67867;SDS011;54672;46.096;14.470;2023-05-10T12:02:28;11.93;;;6.88;;
67867;SDS011;54672;46.096;14.470;2023-05-10T12:04:55;9.98;;;6.72;;
67867;SDS011;54672;46.096;14.470;2023-05-10T12:07:21;12.30;;;6.47;;
67867;SDS011;54672;46.096;14.470;2023-05-10T12:12:40;13.68;;;7.50;;
67867;SDS011;54672;46.096;14.470;2023-05-10T12:15:11;12.95;;;7.50;;
67867;SDS011;54672;46.096;14.470;2023-05-10T12:17:47;13.90;;;8.20;;
67867;SDS011;54672;46.096;14.470;2023-05-10T12:20:22;12.27;;;7.72;;
67867;SDS011;54672;46.096;14.470;2023-05-10T12:25:22;12.77;;;8.20;;
67867;SDS011;54672;46.096;14.470;2023-05-10T12:27:52;12.70;;;8.40;;
67867;SDS011;54672;46.096;14.470;2023-05-10T12:30:20;13.32;;;8.88;;
67867;SDS011;54672;46.096;14.470;2023-05-10T12:32:47;13.13;;;8.35;;
67867;SDS011;54672;46.096;14.470;2023-05-10T12:35:12;14.77;;;8.85;;
67867;SDS011;54672;46.096;14.470;2023-05-10T12:37:38;13.88;;;9.32;;
67867;SDS011;54672;46.096;14.470;2023-05-10T12:40:08;13.43;;;8.57;;
67867;SDS011;54672;46.096;14.470;2023-05-10T12:42:35;16.30;;;9.80;;
67867;SDS011;54672;46.096;14.470;2023-05-10T12:45:02;14.63;;;9.75;;
67867;SDS011;54672;46.096;14.470;2023-05-10T12:47:28;15.85;;;10.50;;
67867;SDS011;54672;46.096;14.470;2023-05-10T12:49:53;17.75;;;10.43;;
67867;SDS011;54672;46.096;14.470;2023-05-10T12:52:19;17.35;;;10.25;;
67867;SDS011;54672;46.096;14.470;2023-05-10T12:54:44;17.48;;;10.60;;
67867;SDS011;54672;46.096;14.470;2023-05-10T12:57:10;15.18;;;9.63;;
67867;SDS011;54672;46.096;14.470;2023-05-10T12:59:35;19.23;;;9.40;;
67867;SDS011;54672;46.096;14.470;2023-05-10T13:02:01;18.33;;;10.80;;
67867;SDS011;54672;46.096;14.470;2023-05-10T13:04:26;15.57;;;10.35;;
67867;SDS011;54672;46.096;14.470;2023-05-10T13:06:52;17.95;;;11.75;;
67867;SDS011;54672;46.096;14.470;2023-05-10T13:09:17;16.35;;;9.60;;
67867;SDS011;54672;46.096;14.470;2023-05-10T13:11:42;15.48;;;9.60;;
67867;SDS011;54672;46.096;14.470;2023-05-10T13:14:08;18.05;;;10.57;;
67867;SDS011;54672;46.096;14.470;2023-05-10T13:16:33;17.70;;;10.38;;
67867;SDS011;54672;46.096;14.470;2023-05-10T13:18:58;15.85;;;11.20;;
67867;SDS011;54672;46.096;14.470;2023-05-10T13:21:24;18.92;;;12.27;;
67867;SDS011;54672;46.096;14.470;2023-05-10T13:23:50;20.05;;;12.15;;
67867;SDS011;54672;46.096;14.470;2023-05-10T13:26:16;16.83;;;10.98;;
67867;SDS011;54672;46.096;14.470;2023-05-10T13:28:41;19.52;;;11.23;;
67867;SDS011;54672;46.096;14.470;2023-05-10T13:31:07;13.50;;;9.20;;
67867;SDS011;54672;46.096;14.470;2023-05-10T13:33:32;19.80;;;9.70;;
67867;SDS011;54672;46.096;14.470;2023-05-10T13:35:58;17.92;;;10.75;;
67867;SDS011;54672;46.096;14.470;2023-05-10T13:38:23;16.08;;;10.70;;
67867;SDS011;54672;46.096;14.470;2023-05-10T13:40:48;16.15;;;10.70;;
67867;SDS011;54672;46.096;14.470;2023-05-10T13:43:17;16.42;;;9.88;;
67867;SDS011;54672;46.096;14.470;2023-05-10T13:45:43;19.60;;;10.80;;
67867;SDS011;54672;46.096;14.470;2023-05-10T13:48:08;19.92;;;11.23;;
67867;SDS011;54672;46.096;14.470;2023-05-10T13:50:34;19.25;;;10.48;;
67867;SDS011;54672;46.096;14.470;2023-05-10T13:52:59;16.63;;;10.25;;
67867;SDS011;54672;46.096;14.470;2023-05-10T13:55:25;16.27;;;10.13;;
67867;SDS011;54672;46.096;14.470;2023-05-10T13:57:50;15.68;;;10.77;;
67867;SDS011;54672;46.096;14.470;2023-05-10T14:00:16;18.00;;;11.13;;
67867;SDS011;54672;46.096;14.470;2023-05-10T14:02:42;15.52;;;10.30;;
67867;SDS011;54672;46.096;14.470;2023-05-10T14:05:07;16.17;;;10.93;;
67867;SDS011;54672;46.096;14.470;2023-05-10T14:07:33;19.05;;;11.02;;
67867;SDS011;54672;46.096;14.470;2023-05-10T14:09:58;18.08;;;10.70;;
67867;SDS011;54672;46.096;14.470;2023-05-10T14:12:24;17.67;;;11.18;;
67867;SDS011;54672;46.096;14.470;2023-05-10T14:14:49;16.77;;;11.35;;
67867;SDS011;54672;46.096;14.470;2023-05-10T14:17:15;16.90;;;10.90;;
67867;SDS011;54672;46.096;14.470;2023-05-10T14:19:41;17.23;;;11.40;;
67867;SDS011;54672;46.096;14.470;2023-05-10T14:22:06;22.45;;;11.90;;
67867;SDS011;54672;46.096;14.470;2023-05-10T14:24:31;18.23;;;11.63;;
67867;SDS011;54672;46.096;14.470;2023-05-10T14:26:57;19.50;;;12.27;;
67867;SDS011;54672;46.096;14.470;2023-05-10T14:29:22;21.30;;;12.75;;
67867;SDS011;54672;46.096;14.470;2023-05-10T14:31:48;21.67;;;13.38;;
67867;SDS011;54672;46.096;14.470;2023-05-10T14:34:13;20.67;;;13.52;;
67867;SDS011;54672;46.096;14.470;2023-05-10T14:36:38;21.13;;;13.50;;
67867;SDS011;54672;46.096;14.470;2023-05-10T14:39:05;23.20;;;14.00;;
67867;SDS011;54672;46.096;14.470;2023-05-10T14:41:31;23.85;;;13.32;;
67867;SDS011;54672;46.096;14.470;2023-05-10T14:43:57;24.92;;;13.63;;
67867;SDS011;54672;46.096;14.470;2023-05-10T14:46:22;24.33;;;14.50;;
67867;SDS011;54672;46.096;14.470;2023-05-10T14:48:48;20.60;;;12.68;;
67867;SDS011;54672;46.096;14.470;2023-05-10T14:51:13;25.77;;;14.80;;
67867;SDS011;54672;46.096;14.470;2023-05-10T14:53:38;24.67;;;14.30;;
67867;SDS011;54672;46.096;14.470;2023-05-10T14:56:04;24.65;;;14.88;;
67867;SDS011;54672;46.096;14.470;2023-05-10T14:58:30;24.73;;;14.75;;
67867;SDS011;54672;46.096;14.470;2023-05-10T15:00:56;22.95;;;14.48;;
67867;SDS011;54672;46.096;14.470;2023-05-10T15:03:22;26.50;;;15.27;;
67867;SDS011;54672;46.096;14.470;2023-05-10T15:05:47;22.42;;;14.43;;
67867;SDS011;54672;46.096;14.470;2023-05-10T15:08:13;22.45;;;13.80;;
67867;SDS011;54672;46.096;14.470;2023-05-10T15:10:39;23.40;;;14.80;;
67867;SDS011;54672;46.096;14.470;2023-05-10T15:13:04;26.95;;;15.90;;